createdAt,value
2018-12-15T00:00:06.222Z,16.03
2018-12-15T00:01:08.684Z,17.90
2018-12-15T00:02:11.188Z,16.00
2018-12-15T00:03:13.674Z,18.50
2018-12-15T00:04:16.210Z,16.17
2018-12-15T00:05:18.848Z,16.43
2018-12-15T00:06:21.345Z,15.90
2018-12-15T00:07:23.813Z,16.47
2018-12-15T00:08:26.271Z,13.10
2018-12-15T00:09:28.749Z,13.50
2018-12-15T00:10:31.222Z,18.77
2018-12-15T00:11:33.699Z,15.47
2018-12-15T00:12:36.269Z,17.77
2018-12-15T00:13:38.822Z,15.60
2018-12-15T00:14:41.371Z,15.90
2018-12-15T00:15:43.918Z,14.97
2018-12-15T00:16:46.414Z,16.43
2018-12-15T00:17:49.362Z,13.40
2018-12-15T00:18:51.860Z,12.67
2018-12-15T00:19:54.362Z,17.30
2018-12-15T00:20:56.906Z,13.20
2018-12-15T00:21:59.375Z,17.17
2018-12-15T00:23:01.858Z,14.30
2018-12-15T00:24:04.324Z,14.67
2018-12-15T00:25:06.827Z,16.13
2018-12-15T00:26:09.306Z,16.67
2018-12-15T00:27:11.797Z,13.37
2018-12-15T00:28:14.278Z,15.43
2018-12-15T00:29:16.786Z,14.10
2018-12-15T00:30:19.287Z,13.10
2018-12-15T00:31:22.042Z,13.67
2018-12-15T00:32:24.544Z,12.70
2018-12-15T00:33:27.013Z,14.07
2018-12-15T00:34:29.472Z,13.40
2018-12-15T00:35:31.956Z,16.00
2018-12-15T00:36:34.424Z,13.93
2018-12-15T00:37:37.039Z,13.83
2018-12-15T00:38:39.519Z,12.53
2018-12-15T00:39:42.000Z,13.27
2018-12-15T00:40:44.506Z,13.63
2018-12-15T00:41:46.984Z,12.47
2018-12-15T00:42:49.445Z,11.23
2018-12-15T00:43:51.942Z,12.77
2018-12-15T00:44:54.407Z,13.93
2018-12-15T00:45:56.889Z,12.57
2018-12-15T00:46:59.369Z,12.33
2018-12-15T00:48:01.869Z,15.00
2018-12-15T00:49:04.350Z,13.80
2018-12-15T00:50:06.907Z,12.07
2018-12-15T00:51:09.484Z,12.50
2018-12-15T00:52:11.979Z,12.37
2018-12-15T00:53:14.450Z,12.30
2018-12-15T00:54:16.930Z,10.90
2018-12-15T00:55:19.406Z,11.70
2018-12-15T00:56:21.957Z,12.27
2018-12-15T00:57:24.488Z,12.60
2018-12-15T00:58:27.044Z,11.53
2018-12-15T00:59:29.525Z,11.87
2018-12-15T01:00:32.061Z,11.17
2018-12-15T01:01:34.566Z,12.43
2018-12-15T01:02:37.032Z,13.30
2018-12-15T01:03:39.493Z,12.40
2018-12-15T01:04:41.961Z,10.53
2018-12-15T01:05:44.455Z,11.33
2018-12-15T01:06:46.958Z,13.20
2018-12-15T01:07:49.437Z,12.27
2018-12-15T01:08:51.900Z,12.43
2018-12-15T01:09:54.356Z,14.40
2018-12-15T01:10:56.845Z,10.80
2018-12-15T01:11:59.358Z,10.47
2018-12-15T01:13:01.821Z,12.07
2018-12-15T01:14:04.299Z,10.87
2018-12-15T01:15:06.777Z,10.90
2018-12-15T01:16:09.258Z,11.47
2018-12-15T01:17:11.773Z,12.20
2018-12-15T01:18:14.330Z,13.30
2018-12-15T01:19:16.810Z,13.13
2018-12-15T01:20:19.282Z,10.77
2018-12-15T01:21:21.762Z,9.73
2018-12-15T01:22:24.259Z,10.37
2018-12-15T01:23:26.753Z,13.40
2018-12-15T01:24:29.244Z,10.20
2018-12-15T01:25:31.722Z,12.60
2018-12-15T01:26:34.203Z,12.30
2018-12-15T01:27:36.694Z,10.00
2018-12-15T01:28:39.185Z,12.70
2018-12-15T01:29:41.652Z,11.53
2018-12-15T01:30:44.131Z,11.70
2018-12-15T01:31:46.606Z,8.80
2018-12-15T01:32:49.106Z,13.10
2018-12-15T01:33:51.612Z,11.30
2018-12-15T01:34:54.105Z,9.20
2018-12-15T01:35:56.620Z,10.30
2018-12-15T01:36:59.078Z,9.20
2018-12-15T01:38:01.564Z,8.53
2018-12-15T01:39:06.208Z,10.93
2018-12-15T01:40:08.816Z,10.40
2018-12-15T01:41:11.298Z,10.60
2018-12-15T01:42:13.774Z,8.93
2018-12-15T01:43:16.285Z,11.00
2018-12-15T01:44:18.798Z,10.67
2018-12-15T01:45:21.293Z,10.63
2018-12-15T01:46:23.773Z,9.77
2018-12-15T01:47:27.038Z,10.27
2018-12-15T01:48:29.785Z,12.63
2018-12-15T01:49:32.258Z,8.90
2018-12-15T01:50:34.740Z,9.50
2018-12-15T01:51:37.312Z,10.57
2018-12-15T01:52:39.767Z,9.83
2018-12-15T01:53:42.262Z,8.80
2018-12-15T01:54:44.749Z,11.10
2018-12-15T01:55:47.236Z,9.20
2018-12-15T01:56:49.719Z,8.30
2018-12-15T01:57:52.210Z,12.20
2018-12-15T01:58:54.702Z,9.67
2018-12-15T01:59:57.399Z,10.20
2018-12-15T02:00:59.867Z,12.77
2018-12-15T02:02:02.362Z,9.67
2018-12-15T02:03:04.913Z,9.60
2018-12-15T02:04:07.392Z,11.07
2018-12-15T02:05:09.885Z,8.80
2018-12-15T02:06:12.352Z,9.93
2018-12-15T02:07:14.837Z,9.27
2018-12-15T02:08:17.311Z,9.53
2018-12-15T02:09:19.860Z,9.37
2018-12-15T02:10:22.370Z,10.43
2018-12-15T02:11:24.861Z,9.60
2018-12-15T02:12:27.342Z,9.70
2018-12-15T02:13:30.352Z,7.73
2018-12-15T02:14:32.861Z,8.80
2018-12-15T02:15:35.365Z,10.50
2018-12-15T02:16:37.846Z,9.37
2018-12-15T02:17:40.333Z,9.23
2018-12-15T02:18:42.808Z,10.53
2018-12-15T02:19:45.351Z,10.80
2018-12-15T02:20:47.830Z,9.33
2018-12-15T02:21:50.322Z,8.20
2018-12-15T02:22:52.799Z,8.30
2018-12-15T02:23:55.282Z,9.50
2018-12-15T02:24:57.769Z,8.50
2018-12-15T02:26:00.246Z,11.03
2018-12-15T02:27:02.712Z,10.40
2018-12-15T02:28:05.205Z,10.43
2018-12-15T02:29:07.688Z,8.83
2018-12-15T02:30:10.267Z,11.13
2018-12-15T02:31:12.764Z,10.63
2018-12-15T02:32:15.262Z,10.47
2018-12-15T02:33:17.787Z,13.90
2018-12-15T02:34:20.280Z,9.27
2018-12-15T02:35:22.802Z,8.33
2018-12-15T02:36:25.293Z,9.73
2018-12-15T02:37:29.769Z,10.23
2018-12-15T02:38:32.230Z,8.37
2018-12-15T02:39:34.802Z,9.27
2018-12-15T02:40:37.302Z,7.67
2018-12-15T02:41:47.049Z,8.87
2018-12-15T02:42:44.357Z,8.90
2018-12-15T02:43:46.838Z,10.00
2018-12-15T02:44:49.334Z,9.40
2018-12-15T02:45:51.830Z,9.00
2018-12-15T02:46:54.317Z,9.10
2018-12-15T02:47:56.793Z,7.33
2018-12-15T02:48:59.252Z,8.80
2018-12-15T02:50:01.727Z,8.57
2018-12-15T02:51:04.216Z,8.60
2018-12-15T02:52:06.695Z,8.30
2018-12-15T02:53:09.180Z,6.70
2018-12-15T02:54:11.636Z,7.87
2018-12-15T02:55:14.129Z,7.50
2018-12-15T02:56:16.608Z,7.50
2018-12-15T02:57:19.099Z,9.10
2018-12-15T02:58:21.582Z,7.87
2018-12-15T02:59:24.180Z,9.57
2018-12-15T03:00:26.729Z,9.80
2018-12-15T03:01:29.212Z,6.43
2018-12-15T03:02:31.696Z,8.40
2018-12-15T03:03:34.152Z,8.40
2018-12-15T03:04:36.640Z,8.50
2018-12-15T03:05:39.141Z,8.27
2018-12-15T03:06:41.631Z,7.20
2018-12-15T03:07:44.109Z,8.23
2018-12-15T03:08:46.591Z,8.30
2018-12-15T03:09:49.063Z,8.27
2018-12-15T03:10:51.601Z,9.90
2018-12-15T03:11:54.098Z,7.63
2018-12-15T03:12:56.654Z,7.73
2018-12-15T03:13:59.173Z,7.00
2018-12-15T03:15:01.652Z,9.70
2018-12-15T03:16:04.221Z,7.03
2018-12-15T03:17:06.861Z,6.57
2018-12-15T03:18:09.323Z,7.17
2018-12-15T03:19:11.866Z,7.97
2018-12-15T03:20:14.396Z,8.03
2018-12-15T03:21:16.860Z,9.80
2018-12-15T03:22:19.423Z,8.00
2018-12-15T03:23:21.908Z,7.53
2018-12-15T03:24:24.393Z,8.47
2018-12-15T03:25:26.885Z,7.20
2018-12-15T03:26:29.482Z,6.63
2018-12-15T03:27:31.981Z,6.33
2018-12-15T03:28:34.446Z,7.20
2018-12-15T03:29:36.936Z,7.37
2018-12-15T03:30:39.597Z,6.77
2018-12-15T03:31:42.095Z,5.87
2018-12-15T03:32:44.614Z,7.77
2018-12-15T03:33:47.100Z,6.60
2018-12-15T03:34:49.563Z,6.57
2018-12-15T03:35:52.024Z,7.03
2018-12-15T03:36:54.498Z,10.60
2018-12-15T03:37:56.981Z,6.17
2018-12-15T03:38:59.486Z,7.80
2018-12-15T03:40:01.945Z,6.90
2018-12-15T03:41:04.422Z,8.00
2018-12-15T03:42:06.917Z,7.40
2018-12-15T03:43:09.418Z,7.70
2018-12-15T03:44:11.883Z,6.47
2018-12-15T03:45:14.347Z,8.03
2018-12-15T03:46:16.801Z,7.70
2018-12-15T03:47:19.276Z,7.90
2018-12-15T03:48:21.767Z,7.30
2018-12-15T03:49:24.244Z,6.00
2018-12-15T03:50:26.719Z,7.00
2018-12-15T03:51:29.187Z,5.50
2018-12-15T03:52:31.716Z,7.83
2018-12-15T03:53:34.197Z,7.13
2018-12-15T03:54:36.674Z,6.93
2018-12-15T03:55:39.204Z,6.57
2018-12-15T03:56:41.678Z,7.10
2018-12-15T03:57:44.170Z,7.77
2018-12-15T03:58:46.666Z,6.97
2018-12-15T03:59:49.279Z,5.57
2018-12-15T04:00:51.755Z,7.07
2018-12-15T04:01:54.253Z,6.67
2018-12-15T04:02:56.718Z,6.43
2018-12-15T04:03:59.233Z,6.13
2018-12-15T04:05:01.707Z,6.60
2018-12-15T04:06:04.197Z,5.80
2018-12-15T04:07:06.694Z,5.73
2018-12-15T04:08:09.176Z,5.17
2018-12-15T04:09:11.671Z,6.10
2018-12-15T04:10:14.170Z,7.33
2018-12-15T04:11:16.646Z,5.80
2018-12-15T04:12:19.150Z,6.27
2018-12-15T04:13:21.623Z,6.97
2018-12-15T04:14:24.104Z,6.37
2018-12-15T04:15:26.588Z,6.20
2018-12-15T04:16:29.164Z,6.73
2018-12-15T04:17:31.662Z,5.73
2018-12-15T04:18:34.131Z,6.97
2018-12-15T04:19:36.608Z,5.43
2018-12-15T04:20:39.116Z,5.87
2018-12-15T04:21:41.649Z,6.40
2018-12-15T04:22:44.128Z,5.90
2018-12-15T04:23:47.399Z,6.37
2018-12-15T04:24:50.087Z,6.07
2018-12-15T04:25:52.585Z,6.43
2018-12-15T04:26:55.067Z,6.97
2018-12-15T04:27:57.524Z,6.40
2018-12-15T04:29:00.015Z,5.93
2018-12-15T04:30:02.835Z,6.53
2018-12-15T04:31:05.318Z,5.67
2018-12-15T04:32:07.863Z,6.07
2018-12-15T04:33:10.342Z,7.23
2018-12-15T04:34:12.815Z,9.10
2018-12-15T04:35:15.329Z,12.87
2018-12-15T04:36:18.655Z,7.23
2018-12-15T04:37:21.116Z,11.90
2018-12-15T04:38:23.598Z,22.73
2018-12-15T04:39:26.081Z,10.67
2018-12-15T04:40:28.752Z,17.90
2018-12-15T04:41:31.249Z,27.43
2018-12-15T04:42:33.740Z,22.73
2018-12-15T04:43:36.222Z,26.20
2018-12-15T04:44:38.702Z,18.17
2018-12-15T04:45:41.200Z,39.27
2018-12-15T04:46:43.678Z,22.23
2018-12-15T04:47:46.173Z,27.67
2018-12-15T04:48:48.764Z,27.23
2018-12-15T04:49:51.241Z,31.00
2018-12-15T04:50:53.738Z,27.50
2018-12-15T04:51:56.218Z,28.87
2018-12-15T04:52:58.686Z,13.13
2018-12-15T04:54:01.159Z,28.80
2018-12-15T04:55:04.092Z,22.50
2018-12-15T04:56:06.598Z,16.80
2018-12-15T04:57:09.083Z,24.07
2018-12-15T04:58:11.566Z,27.43
2018-12-15T04:59:14.058Z,19.97
2018-12-15T05:00:16.526Z,14.43
2018-12-15T05:01:19.016Z,21.93
2018-12-15T05:02:21.502Z,23.83
2018-12-15T05:03:23.979Z,17.73
2018-12-15T05:04:26.469Z,18.53
2018-12-15T05:05:28.946Z,17.80
2018-12-15T05:06:31.467Z,10.37
2018-12-15T05:07:33.973Z,22.97
2018-12-15T05:08:36.473Z,16.13
2018-12-15T05:09:38.959Z,17.97
2018-12-15T05:10:41.420Z,42.47
2018-12-15T05:11:43.919Z,25.33
2018-12-15T05:12:46.390Z,20.57
2018-12-15T05:13:48.871Z,11.80
2018-12-15T05:14:51.351Z,21.20
2018-12-15T05:15:53.845Z,20.70
2018-12-15T05:16:56.346Z,24.93
2018-12-15T05:17:58.826Z,36.33
2018-12-15T05:19:01.337Z,18.60
2018-12-15T05:20:04.477Z,22.90
2018-12-15T05:21:07.093Z,20.53
2018-12-15T05:22:09.777Z,13.77
2018-12-15T05:23:12.261Z,20.87
2018-12-15T05:24:14.724Z,25.63
2018-12-15T05:25:17.221Z,27.80
2018-12-15T05:26:19.711Z,18.03
2018-12-15T05:27:22.272Z,28.67
2018-12-15T05:28:24.750Z,27.67
2018-12-15T05:29:27.218Z,13.77
2018-12-15T05:30:29.716Z,27.33
2018-12-15T05:31:32.198Z,21.10
2018-12-15T05:32:34.681Z,15.57
2018-12-15T05:33:37.169Z,23.20
2018-12-15T05:34:39.678Z,16.17
2018-12-15T05:35:42.148Z,13.10
2018-12-15T05:36:44.641Z,20.13
2018-12-15T05:37:47.120Z,18.47
2018-12-15T05:38:49.579Z,28.23
2018-12-15T05:39:52.119Z,16.93
2018-12-15T05:40:54.594Z,13.43
2018-12-15T05:41:57.093Z,9.17
2018-12-15T05:42:59.636Z,20.10
2018-12-15T05:44:02.164Z,9.90
2018-12-15T05:45:05.571Z,15.43
2018-12-15T05:46:08.047Z,11.03
2018-12-15T05:47:10.534Z,16.73
2018-12-15T05:48:13.027Z,11.83
2018-12-15T05:49:15.514Z,13.10
2018-12-15T05:50:17.980Z,14.03
2018-12-15T05:51:20.538Z,12.93
2018-12-15T05:52:23.037Z,13.93
2018-12-15T05:53:25.549Z,19.93
2018-12-15T05:54:28.029Z,11.23
2018-12-15T05:55:30.514Z,8.47
2018-12-15T05:56:32.990Z,12.33
2018-12-15T05:57:35.483Z,11.40
2018-12-15T05:58:37.975Z,9.60
2018-12-15T05:59:40.448Z,19.83
2018-12-15T06:00:42.926Z,12.93
2018-12-15T06:01:45.400Z,6.70
2018-12-15T06:02:48.006Z,15.60
2018-12-15T06:03:50.513Z,18.43
2018-12-15T06:04:53.880Z,14.50
2018-12-15T06:05:56.359Z,15.77
2018-12-15T06:06:58.842Z,6.20
2018-12-15T06:08:01.304Z,19.63
2018-12-15T06:09:05.049Z,14.80
2018-12-15T06:10:07.616Z,12.73
2018-12-15T06:11:10.091Z,13.53
2018-12-15T06:12:12.570Z,8.93
2018-12-15T06:13:15.050Z,18.43
2018-12-15T06:14:17.550Z,9.80
2018-12-15T06:15:20.101Z,4.93
2018-12-15T06:16:22.601Z,10.13
2018-12-15T06:17:25.074Z,6.93
2018-12-15T06:18:31.655Z,10.70
2018-12-15T06:19:32.104Z,10.73
2018-12-15T06:20:34.583Z,7.30
2018-12-15T06:21:37.064Z,5.97
2018-12-15T06:22:39.556Z,5.77
2018-12-15T06:23:42.035Z,7.33
2018-12-15T06:24:44.515Z,7.90
2018-12-15T06:25:47.062Z,5.00
2018-12-15T06:26:49.538Z,5.50
2018-12-15T06:27:51.996Z,9.47
2018-12-15T06:28:54.512Z,5.80
2018-12-15T06:29:57.113Z,12.50
2018-12-15T06:30:59.594Z,7.50
2018-12-15T06:32:02.098Z,5.97
2018-12-15T06:33:04.590Z,4.30
2018-12-15T06:34:07.178Z,10.23
2018-12-15T06:35:09.654Z,7.70
2018-12-15T06:36:12.125Z,9.93
2018-12-15T06:37:14.599Z,4.83
2018-12-15T06:38:17.083Z,7.80
2018-12-15T06:39:19.574Z,6.97
2018-12-15T06:40:22.032Z,8.00
2018-12-15T06:41:24.504Z,7.27
2018-12-15T06:42:26.965Z,6.80
2018-12-15T06:43:29.703Z,6.63
2018-12-15T06:44:32.195Z,6.40
2018-12-15T06:45:34.670Z,6.77
2018-12-15T06:46:37.206Z,5.60
2018-12-15T06:47:39.681Z,5.13
2018-12-15T06:48:42.159Z,8.50
2018-12-15T06:49:44.734Z,11.60
2018-12-15T06:50:47.207Z,5.70
2018-12-15T06:51:49.690Z,8.93
2018-12-15T06:52:52.177Z,4.87
2018-12-15T06:53:54.736Z,8.80
2018-12-15T06:54:57.235Z,7.97
2018-12-15T06:55:59.852Z,7.37
2018-12-15T06:57:02.324Z,5.50
2018-12-15T06:58:04.842Z,12.40
2018-12-15T06:59:07.328Z,4.23
2018-12-15T07:00:09.944Z,4.10
2018-12-15T07:01:12.478Z,4.47
2018-12-15T07:02:14.970Z,6.77
2018-12-15T07:03:17.458Z,4.17
2018-12-15T07:04:19.969Z,8.30
2018-12-15T07:05:22.538Z,19.37
2018-12-15T07:06:25.042Z,9.43
2018-12-15T07:07:27.522Z,4.77
2018-12-15T07:08:30.013Z,5.23
2018-12-15T07:09:32.502Z,5.03
2018-12-15T07:10:35.024Z,7.03
2018-12-15T07:11:37.524Z,8.00
2018-12-15T07:12:40.108Z,11.08
2018-12-15T07:13:42.594Z,9.50
2018-12-15T07:14:45.083Z,13.37
2018-12-15T07:15:47.614Z,8.80
2018-12-15T07:16:50.110Z,7.93
2018-12-15T07:17:52.614Z,12.27
2018-12-15T07:18:55.126Z,15.70
2018-12-15T07:19:57.664Z,12.40
2018-12-15T07:21:00.241Z,12.67
2018-12-15T07:22:02.730Z,18.50
2018-12-15T07:23:05.206Z,16.50
2018-12-15T07:24:07.702Z,13.43
2018-12-15T07:25:11.352Z,14.57
2018-12-15T07:26:13.854Z,15.33
2018-12-15T07:27:16.349Z,15.90
2018-12-15T07:28:18.836Z,19.93
2018-12-15T07:29:21.299Z,12.23
2018-12-15T07:30:23.800Z,13.80
2018-12-15T07:31:26.304Z,13.73
2018-12-15T07:32:28.801Z,15.70
2018-12-15T07:33:31.301Z,13.33
2018-12-15T07:34:33.778Z,13.00
2018-12-15T07:35:36.347Z,19.30
2018-12-15T07:36:39.022Z,19.90
2018-12-15T07:38:19.534Z,16.93
2018-12-15T07:39:22.004Z,19.23
2018-12-15T07:40:24.514Z,19.30
2018-12-15T07:41:26.978Z,26.07
2018-12-15T07:42:29.477Z,33.60
2018-12-15T07:43:31.973Z,18.97
2018-12-15T07:44:34.455Z,27.57
2018-12-15T07:45:37.024Z,20.53
2018-12-15T07:46:44.647Z,23.37
2018-12-15T07:47:47.162Z,20.80
2018-12-15T07:48:51.522Z,18.87
2018-12-15T07:49:54.187Z,17.60
2018-12-15T07:50:56.674Z,18.73
2018-12-15T07:51:59.150Z,17.47
2018-12-15T07:53:01.754Z,24.80
2018-12-15T07:54:04.224Z,23.23
2018-12-15T07:55:06.772Z,18.57
2018-12-15T07:56:09.250Z,17.43
2018-12-15T07:57:11.738Z,17.63
2018-12-15T07:58:14.261Z,18.63
2018-12-15T07:59:16.733Z,23.00
2018-12-15T08:00:19.341Z,20.10
2018-12-15T08:01:21.842Z,21.20
2018-12-15T08:02:24.338Z,22.60
2018-12-15T08:03:26.847Z,17.93
2018-12-15T08:04:29.308Z,22.70
2018-12-15T08:05:31.844Z,21.60
2018-12-15T08:06:34.347Z,25.23
2018-12-15T08:07:36.920Z,21.60
2018-12-15T08:08:39.426Z,20.63
2018-12-15T08:09:41.981Z,22.83
2018-12-15T08:10:50.046Z,25.30
2018-12-15T08:11:58.261Z,18.87
2018-12-15T08:13:02.718Z,22.93
2018-12-15T08:14:07.198Z,21.17
2018-12-15T08:15:09.865Z,21.63
2018-12-15T08:16:12.366Z,19.10
2018-12-15T08:17:14.859Z,23.50
2018-12-15T08:18:17.324Z,27.27
2018-12-15T08:19:19.830Z,23.87
2018-12-15T08:20:22.728Z,19.80
2018-12-15T08:21:25.322Z,27.23
2018-12-15T08:22:27.788Z,26.47
2018-12-15T08:23:30.278Z,23.50
2018-12-15T08:24:32.883Z,28.50
2018-12-15T08:25:35.372Z,17.30
2018-12-15T08:26:37.952Z,26.40
2018-12-15T08:27:40.426Z,19.73
2018-12-15T08:28:42.967Z,27.63
2018-12-15T08:29:45.460Z,23.80
2018-12-15T08:30:48.036Z,24.70
2018-12-15T08:31:52.119Z,18.23
2018-12-15T08:32:54.654Z,20.87
2018-12-15T08:33:57.135Z,23.60
2018-12-15T08:34:59.650Z,22.63
2018-12-15T08:36:02.149Z,26.10
2018-12-15T08:37:04.639Z,19.37
2018-12-15T08:38:07.103Z,25.43
2018-12-15T08:39:09.592Z,14.63
2018-12-15T08:40:12.344Z,18.23
2018-12-15T08:41:14.804Z,17.50
2018-12-15T08:42:17.366Z,14.67
2018-12-15T08:43:19.864Z,12.33
2018-12-15T08:44:22.363Z,25.20
2018-12-15T08:45:24.949Z,15.40
2018-12-15T08:46:27.436Z,12.77
2018-12-15T08:47:29.920Z,17.77
2018-12-15T08:48:32.397Z,16.80
2018-12-15T08:49:34.897Z,18.37
2018-12-15T08:50:37.586Z,17.77
2018-12-15T08:51:40.084Z,15.83
2018-12-15T08:52:42.580Z,18.13
2018-12-15T08:53:45.080Z,14.77
2018-12-15T08:54:47.554Z,14.90
2018-12-15T08:55:50.198Z,17.67
2018-12-15T08:56:52.692Z,19.43
2018-12-15T08:57:55.171Z,19.63
2018-12-15T08:58:57.633Z,14.27
2018-12-15T09:00:00.108Z,12.27
2018-12-15T09:01:02.625Z,16.67
2018-12-15T09:02:05.482Z,17.13
2018-12-15T09:03:08.904Z,16.20
2018-12-15T09:04:11.374Z,13.63
2018-12-15T09:05:13.854Z,13.67
2018-12-15T09:06:16.365Z,15.57
2018-12-15T09:07:19.053Z,21.30
2018-12-15T09:08:21.555Z,12.53
2018-12-15T09:09:24.070Z,14.00
2018-12-15T09:10:26.536Z,13.13
2018-12-15T09:11:29.042Z,13.43
2018-12-15T09:12:31.527Z,11.70
2018-12-15T09:13:34.041Z,15.23
2018-12-15T09:14:36.540Z,12.40
2018-12-15T09:15:39.008Z,13.47
2018-12-15T09:16:41.535Z,13.10
2018-12-15T09:17:44.010Z,16.80
2018-12-15T09:18:46.494Z,12.43
2018-12-15T09:19:48.980Z,15.73
2018-12-15T09:20:51.452Z,10.27
2018-12-15T09:21:54.015Z,11.03
2018-12-15T09:22:56.527Z,11.33
2018-12-15T09:23:59.017Z,13.60
2018-12-15T09:25:01.518Z,10.77
2018-12-15T09:26:04.085Z,10.30
2018-12-15T09:27:06.584Z,11.47
2018-12-15T09:28:09.084Z,10.67
2018-12-15T09:29:11.572Z,11.03
2018-12-15T09:30:14.051Z,13.00
2018-12-15T09:31:16.531Z,9.50
2018-12-15T09:32:19.040Z,14.07
2018-12-15T09:33:21.626Z,11.90
2018-12-15T09:34:24.092Z,12.40
2018-12-15T09:35:26.585Z,9.70
2018-12-15T09:36:29.052Z,13.97
2018-12-15T09:37:31.568Z,9.27
2018-12-15T09:38:34.050Z,9.73
2018-12-15T09:39:36.526Z,12.67
2018-12-15T09:40:39.592Z,15.80
2018-12-15T09:41:42.071Z,11.97
2018-12-15T09:42:44.575Z,11.40
2018-12-15T09:43:47.070Z,11.13
2018-12-15T09:44:49.568Z,12.80
2018-12-15T09:45:52.042Z,11.33
2018-12-15T09:46:54.580Z,11.27
2018-12-15T09:47:57.078Z,9.70
2018-12-15T09:48:59.558Z,10.73
2018-12-15T09:50:02.065Z,12.37
2018-12-15T09:51:04.657Z,14.83
2018-12-15T09:52:07.157Z,10.23
2018-12-15T09:53:09.744Z,12.17
2018-12-15T09:54:12.236Z,13.37
2018-12-15T09:55:14.805Z,10.73
2018-12-15T09:56:17.594Z,21.93
2018-12-15T09:57:20.102Z,14.17
2018-12-15T09:58:22.729Z,16.33
2018-12-15T09:59:25.211Z,24.07
2018-12-15T10:00:27.709Z,16.60
2018-12-15T10:01:30.295Z,19.00
2018-12-15T10:02:32.763Z,13.70
2018-12-15T10:03:35.262Z,15.70
2018-12-15T10:04:37.738Z,15.70
2018-12-15T10:05:40.253Z,16.53
2018-12-15T10:06:42.774Z,19.03
2018-12-15T10:07:45.254Z,24.30
2018-12-15T10:08:47.754Z,16.90
2018-12-15T10:09:50.250Z,13.70
2018-12-15T10:10:52.720Z,16.57
2018-12-15T10:11:55.214Z,12.50
2018-12-15T10:12:57.723Z,13.63
2018-12-15T10:14:00.241Z,14.20
2018-12-15T10:15:02.704Z,16.70
2018-12-15T10:16:05.168Z,18.80
2018-12-15T10:17:08.937Z,18.48
2018-12-15T10:18:11.923Z,21.60
2018-12-15T10:19:14.415Z,20.73
2018-12-15T10:20:16.880Z,24.37
2018-12-15T10:21:19.394Z,20.23
2018-12-15T10:22:21.886Z,21.43
2018-12-15T10:23:24.412Z,21.20
2018-12-15T10:24:26.903Z,18.77
2018-12-15T10:25:29.404Z,28.83
2018-12-15T10:26:31.919Z,31.23
2018-12-15T10:27:34.410Z,28.53
2018-12-15T10:28:37.062Z,23.13
2018-12-15T10:29:45.262Z,27.83
2018-12-15T10:30:53.429Z,27.43
2018-12-15T10:32:01.636Z,23.10
2018-12-15T10:33:04.267Z,18.70
2018-12-15T10:34:06.754Z,20.03
2018-12-15T10:35:09.255Z,21.50
2018-12-15T10:36:11.753Z,25.00
2018-12-15T10:37:14.242Z,25.13
2018-12-15T10:38:16.754Z,18.77
2018-12-15T10:39:19.254Z,21.77
2018-12-15T10:40:21.885Z,19.23
2018-12-15T10:41:24.353Z,18.40
2018-12-15T10:42:26.834Z,23.03
2018-12-15T10:43:29.320Z,22.53
2018-12-15T10:44:31.811Z,32.93
2018-12-15T10:45:35.162Z,19.17
2018-12-15T10:46:37.689Z,19.03
2018-12-15T10:47:40.197Z,18.70
2018-12-15T10:48:42.737Z,15.90
2018-12-15T10:49:45.260Z,17.80
2018-12-15T10:50:47.992Z,15.73
2018-12-15T10:51:50.487Z,18.97
2018-12-15T10:52:52.984Z,22.00
2018-12-15T10:53:55.474Z,17.73
2018-12-15T10:54:57.965Z,17.53
2018-12-15T10:56:00.450Z,22.70
2018-12-15T10:57:02.926Z,15.00
2018-12-15T10:58:05.419Z,17.47
2018-12-15T10:59:07.907Z,17.90
2018-12-15T11:00:12.650Z,18.70
2018-12-15T11:01:20.832Z,22.00
2018-12-15T11:02:23.310Z,16.73
2018-12-15T11:03:25.814Z,19.43
2018-12-15T11:04:28.294Z,19.97
2018-12-15T11:05:30.779Z,20.47
2018-12-15T11:06:33.285Z,16.87
2018-12-15T11:07:35.783Z,21.23
2018-12-15T11:08:38.248Z,16.23
2018-12-15T11:09:40.728Z,23.47
2018-12-15T11:10:43.212Z,21.73
2018-12-15T11:11:45.780Z,23.30
2018-12-15T11:12:48.271Z,21.97
2018-12-15T11:13:50.758Z,18.40
2018-12-15T11:14:53.219Z,19.30
2018-12-15T11:15:55.770Z,21.70
2018-12-15T11:16:58.266Z,18.00
2018-12-15T11:18:00.728Z,17.77
2018-12-15T11:19:03.286Z,18.10
2018-12-15T11:20:05.894Z,17.17
2018-12-15T11:21:08.379Z,15.70
2018-12-15T11:22:10.881Z,16.37
2018-12-15T11:23:13.480Z,17.40
2018-12-15T11:24:15.962Z,15.97
2018-12-15T11:25:18.491Z,19.50
2018-12-15T11:26:21.010Z,16.30
2018-12-15T11:27:23.484Z,17.20
2018-12-15T11:28:25.973Z,18.83
2018-12-15T11:29:28.466Z,19.43
2018-12-15T11:30:30.960Z,17.67
2018-12-15T11:31:33.445Z,19.93
2018-12-15T11:32:35.904Z,19.43
2018-12-15T11:33:38.428Z,17.87
2018-12-15T11:34:40.913Z,23.40
2018-12-15T11:35:43.398Z,27.10
2018-12-15T11:36:45.899Z,25.47
2018-12-15T11:37:48.380Z,25.40
2018-12-15T11:38:50.874Z,27.30
2018-12-15T11:39:53.373Z,21.23
2018-12-15T11:40:55.885Z,29.17
2018-12-15T11:41:58.462Z,20.73
2018-12-15T11:43:00.931Z,26.70
2018-12-15T11:44:03.392Z,19.70
2018-12-15T11:45:06.000Z,21.60
2018-12-15T11:46:08.503Z,31.10
2018-12-15T11:47:11.010Z,20.30
2018-12-15T11:48:13.570Z,19.00
2018-12-15T11:49:16.057Z,20.37
2018-12-15T11:50:18.607Z,16.43
2018-12-15T11:51:21.131Z,22.10
2018-12-15T11:52:23.729Z,27.40
2018-12-15T11:53:26.226Z,15.27
2018-12-15T11:54:28.717Z,16.50
2018-12-15T11:55:31.194Z,19.17
2018-12-15T11:56:33.665Z,22.33
2018-12-15T11:57:36.230Z,14.20
2018-12-15T11:58:38.704Z,17.13
2018-12-15T11:59:41.184Z,20.90
2018-12-15T12:00:43.803Z,23.60
2018-12-15T12:01:46.288Z,18.53
2018-12-15T12:02:48.941Z,20.03
2018-12-15T12:03:51.582Z,18.03
2018-12-15T12:04:54.070Z,21.93
2018-12-15T12:05:56.598Z,16.93
2018-12-15T12:06:59.101Z,16.37
2018-12-15T12:08:01.606Z,15.37
2018-12-15T12:09:05.878Z,27.03
2018-12-15T12:10:08.369Z,23.23
2018-12-15T12:11:10.960Z,18.00
2018-12-15T12:12:13.518Z,18.53
2018-12-15T12:13:16.007Z,14.27
2018-12-15T12:14:18.506Z,19.57
2018-12-15T12:15:20.997Z,19.67
2018-12-15T12:16:23.489Z,15.97
2018-12-15T12:17:26.012Z,19.23
2018-12-15T12:18:28.522Z,18.67
2018-12-15T12:19:31.022Z,19.43
2018-12-15T12:20:34.163Z,22.90
2018-12-15T12:21:36.740Z,23.67
2018-12-15T12:22:39.249Z,25.13
2018-12-15T12:23:41.762Z,19.00
2018-12-15T12:24:44.257Z,18.00
2018-12-15T12:25:46.743Z,25.67
2018-12-15T12:26:49.261Z,19.97
2018-12-15T12:27:51.764Z,23.93
2018-12-15T12:28:54.327Z,15.00
2018-12-15T12:29:56.811Z,22.53
2018-12-15T12:30:59.280Z,16.17
2018-12-15T12:32:01.774Z,19.10
2018-12-15T12:33:04.346Z,15.60
2018-12-15T12:34:06.827Z,14.20
2018-12-15T12:35:09.310Z,20.50
2018-12-15T12:36:11.830Z,15.07
2018-12-15T12:37:14.329Z,15.07
2018-12-15T12:38:16.797Z,30.87
2018-12-15T12:39:19.280Z,17.63
2018-12-15T12:40:21.874Z,17.27
2018-12-15T12:41:24.368Z,18.03
2018-12-15T12:42:26.852Z,16.87
2018-12-15T12:43:29.316Z,21.50
2018-12-15T12:44:31.833Z,15.60
2018-12-15T12:45:34.318Z,18.77
2018-12-15T12:46:36.797Z,15.10
2018-12-15T12:47:39.278Z,15.77
2018-12-15T12:48:41.755Z,14.00
2018-12-15T12:49:44.269Z,19.20
2018-12-15T12:50:46.768Z,11.87
2018-12-15T12:51:49.268Z,16.03
2018-12-15T12:52:51.844Z,16.40
2018-12-15T12:53:54.340Z,15.63
2018-12-15T12:54:56.853Z,17.30
2018-12-15T12:55:59.334Z,18.07
2018-12-15T12:57:01.801Z,15.17
2018-12-15T12:58:04.354Z,18.50
2018-12-15T12:59:06.825Z,16.27
2018-12-15T13:00:09.544Z,17.03
2018-12-15T13:01:12.022Z,18.40
2018-12-15T13:02:14.483Z,16.60
2018-12-15T13:03:16.948Z,15.90
2018-12-15T13:04:19.450Z,16.30
2018-12-15T13:05:21.941Z,15.17
2018-12-15T13:06:24.432Z,16.20
2018-12-15T13:07:26.895Z,15.10
2018-12-15T13:08:29.357Z,15.17
2018-12-15T13:09:31.839Z,23.30
2018-12-15T13:10:34.354Z,18.73
2018-12-15T13:11:36.903Z,17.90
2018-12-15T13:12:39.451Z,18.67
2018-12-15T13:13:42.041Z,16.60
2018-12-15T13:14:44.503Z,15.50
2018-12-15T13:15:46.983Z,18.37
2018-12-15T13:16:49.528Z,24.07
2018-12-15T13:17:52.007Z,17.20
2018-12-15T13:18:55.924Z,15.77
2018-12-15T13:20:03.621Z,15.50
2018-12-15T13:21:03.150Z,19.40
2018-12-15T13:22:05.635Z,17.00
2018-12-15T13:23:08.260Z,15.67
2018-12-15T13:24:10.730Z,14.63
2018-12-15T13:25:13.209Z,15.73
2018-12-15T13:26:15.725Z,20.37
2018-12-15T13:27:18.221Z,14.83
2018-12-15T13:28:22.674Z,14.60
2018-12-15T13:29:25.158Z,15.57
2018-12-15T13:30:27.788Z,16.60
2018-12-15T13:31:30.301Z,17.80
2018-12-15T13:32:32.827Z,12.23
2018-12-15T13:33:35.564Z,16.10